Time;durP1;ratioP1;P1;durP2;ratioP2;P2;SDS_P1;SDS_P2;PMS_P1;PMS_P2;Temp;Humidity;BMP_temperature;BMP_pressure;BME280_temperature;BME280_humidity;BME280_pressure;Samples;Min_cycle;Max_cycle;Signal;HPM_P1;HPM_P2
2023/09/24 00:01:11;;;;;;;4.68;1.95;;;;;;;;;;6187057;23;20028;-83
2023/09/24 00:03:38;;;;;;;3.60;3.05;;;;;;;;;;6160827;23;20020;-84
2023/09/24 00:06:09;;;;;;;4.72;2.45;;;;;;;;;;6187596;23;20080;-84
2023/09/24 00:08:37;;;;;;;3.67;1.90;;;;;;;;;;6185722;23;20420;-83
2023/09/24 00:11:04;;;;;;;3.05;1.65;;;;;;;;;;6161904;23;20483;-84
2023/09/24 00:13:34;;;;;;;5.78;2.70;;;;;;;;;;6160508;23;20364;-83
2023/09/24 00:16:04;;;;;;;4.00;2.22;;;;;;;;;;6161719;23;20476;-84
2023/09/24 00:18:33;;;;;;;5.30;2.90;;;;;;;;;;6186312;23;20017;-83
2023/09/24 00:21:03;;;;;;;2.83;2.28;;;;;;;;;;6223451;23;20017;-84
2023/09/24 00:23:32;;;;;;;3.70;2.78;;;;;;;;;;6212556;23;20035;-83
2023/09/24 01:02:36;;;;;;;4.53;2.42;;;;;;;;;;6215549;23;20464;-83
2023/09/24 01:05:10;;;;;;;5.03;3.05;;;;;;;;;;6188234;23;20346;-80
2023/09/24 01:07:37;;;;;;;3.53;2.60;;;;;;;;;;6158619;23;20346;-80
2023/09/24 01:10:08;;;;;;;4.30;2.63;;;;;;;;;;6157595;23;20021;-80
2023/09/24 01:12:39;;;;;;;2.97;2.45;;;;;;;;;;6133256;23;20023;-80
2023/09/24 01:15:12;;;;;;;4.65;3.03;;;;;;;;;;6133602;23;20040;-80
2023/09/24 01:17:43;;;;;;;4.45;3.00;;;;;;;;;;6132510;23;20021;-80
2023/09/24 01:20:13;;;;;;;3.30;2.58;;;;;;;;;;6132240;23;20018;-80
2023/09/24 01:22:47;;;;;;;3.60;3.25;;;;;;;;;;6133334;23;20028;-80
2023/09/24 01:25:14;;;;;;;3.55;3.10;;;;;;;;;;6132242;23;20018;-80
2023/09/24 01:27:45;;;;;;;3.10;2.45;;;;;;;;;;6132050;23;20013;-80
2023/09/24 01:30:14;;;;;;;5.00;3.28;;;;;;;;;;6156911;23;20025;-80
2023/09/24 01:32:42;;;;;;;4.15;2.78;;;;;;;;;;6157215;23;20025;-80
2023/09/24 01:35:12;;;;;;;3.63;2.47;;;;;;;;;;6133461;23;20025;-80
2023/09/24 01:37:39;;;;;;;4.13;2.70;;;;;;;;;;6166390;23;20017;-80
2023/09/24 01:40:18;;;;;;;3.35;2.63;;;;;;;;;;6155144;23;20013;-80
2023/09/24 01:42:48;;;;;;;2.60;2.10;;;;;;;;;;6167341;23;20423;-80
2023/09/24 01:45:16;;;;;;;2.20;1.90;;;;;;;;;;6133244;23;20052;-80
2023/09/24 01:47:49;;;;;;;3.60;2.60;;;;;;;;;;6132834;23;20025;-80
2023/09/24 01:50:19;;;;;;;;;;;;;;;;;;6165369;23;20028;-80
2023/09/24 01:52:46;;;;;;;5.22;2.35;;;;;;;;;;6132665;23;19921;-80
2023/09/24 01:55:16;;;;;;;5.85;3.53;;;;;;;;;;6132641;23;20014;-80
2023/09/24 01:57:46;;;;;;;4.15;2.85;;;;;;;;;;6157311;23;20024;-80
2023/09/24 02:00:21;;;;;;;6.78;3.53;;;;;;;;;;6131950;23;20501;-80
2023/09/24 02:02:51;;;;;;;6.32;4.03;;;;;;;;;;6157352;23;20024;-80
2023/09/24 02:05:22;;;;;;;10.88;3.95;;;;;;;;;;6156357;23;20029;-80
2023/09/24 02:07:54;;;;;;;20.52;5.05;;;;;;;;;;6133191;23;20068;-80
2023/09/24 02:10:25;;;;;;;12.02;4.97;;;;;;;;;;6132258;23;20021;-80
2023/09/24 02:12:53;;;;;;;15.40;5.60;;;;;;;;;;6132967;23;20040;-80
2023/09/24 02:15:23;;;;;;;7.47;4.13;;;;;;;;;;6132576;23;20018;-80
2023/09/24 02:17:53;;;;;;;11.98;3.88;;;;;;;;;;6132302;23;20024;-80
2023/09/24 02:20:23;;;;;;;15.15;7.20;;;;;;;;;;6155778;23;20022;-80
2023/09/24 02:22:52;;;;;;;22.63;6.05;;;;;;;;;;6132795;23;20040;-80
2023/09/24 02:25:21;;;;;;;26.73;7.85;;;;;;;;;;6132675;23;20024;-80
2023/09/24 02:27:51;;;;;;;59.67;9.15;;;;;;;;;;6132944;23;20488;-79
2023/09/24 02:30:18;;;;;;;17.42;6.05;;;;;;;;;;6131140;23;20022;-80
2023/09/24 02:32:48;;;;;;;49.78;7.38;;;;;;;;;;6165998;23;20017;-80
2023/09/24 02:35:20;;;;;;;21.55;6.57;;;;;;;;;;6167439;23;20361;-80
2023/09/24 02:37:51;;;;;;;40.03;8.70;;;;;;;;;;6132906;23;20029;-80
2023/09/24 02:40:22;;;;;;;86.13;13.13;;;;;;;;;;6158072;23;20017;-80
2023/09/24 02:42:55;;;;;;;21.00;4.90;;;;;;;;;;6131355;23;20358;-80
2023/09/24 03:00:42;;;;;;;5.32;3.28;;;;;;;;;;6182568;23;20357;-79
2023/09/24 03:03:13;;;;;;;11.85;5.45;;;;;;;;;;6135757;23;20024;-80
2023/09/24 03:05:44;;;;;;;8.13;3.92;;;;;;;;;;6138340;23;20032;-80
2023/09/24 03:08:15;;;;;;;11.65;4.65;;;;;;;;;;6162405;23;20345;-80
2023/09/24 03:10:43;;;;;;;14.00;4.28;;;;;;;;;;6137803;23;20473;-80
2023/09/24 03:13:10;;;;;;;27.13;5.43;;;;;;;;;;6136647;23;20017;-80
2023/09/24 03:36:12;;;;;;;2.63;2.40;;;;;;;;;;6214215;23;20012;-80
2023/09/24 03:38:42;;;;;;;3.17;2.88;;;;;;;;;;6167096;23;20345;-80
2023/09/24 03:41:10;;;;;;;4.90;3.45;;;;;;;;;;6192349;23;20021;-80
2023/09/24 03:43:38;;;;;;;6.07;3.25;;;;;;;;;;6202174;23;20012;-80
2023/09/24 04:06:39;;;;;;;20.60;4.60;;;;;;;;;;6194184;23;20460;-80
2023/09/24 04:09:07;;;;;;;12.48;4.47;;;;;;;;;;6163446;23;20020;-80
2023/09/24 04:11:37;;;;;;;7.28;3.35;;;;;;;;;;6164959;23;20225;-80
2023/09/24 04:14:04;;;;;;;4.68;3.78;;;;;;;;;;6216329;23;20013;-80
2023/09/24 04:16:31;;;;;;;14.93;4.88;;;;;;;;;;6163604;23;20017;-80
2023/09/24 04:18:58;;;;;;;9.95;3.88;;;;;;;;;;6186779;23;20016;-79
2023/09/24 04:21:27;;;;;;;7.00;3.70;;;;;;;;;;6163677;23;20024;-79
2023/09/24 04:23:58;;;;;;;23.58;4.95;;;;;;;;;;6189356;23;20076;-79
2023/09/24 04:26:25;;;;;;;8.43;4.03;;;;;;;;;;6163450;23;20020;-79
2023/09/24 04:28:54;;;;;;;7.50;3.60;;;;;;;;;;6163616;23;20013;-79
2023/09/24 04:31:24;;;;;;;15.00;4.65;;;;;;;;;;6165648;23;20345;-79
2023/09/24 04:33:51;;;;;;;22.08;4.32;;;;;;;;;;6165376;23;20016;-79
2023/09/24 04:36:18;;;;;;;8.27;2.80;;;;;;;;;;6190356;23;20024;-79
2023/09/24 04:38:47;;;;;;;12.98;4.60;;;;;;;;;;6164492;23;20013;-79
2023/09/24 04:41:16;;;;;;;13.30;4.38;;;;;;;;;;6165245;23;20013;-79
2023/09/24 04:43:45;;;;;;;7.50;4.63;;;;;;;;;;6165818;23;20031;-79
2023/09/24 04:46:13;;;;;;;32.85;5.68;;;;;;;;;;6190052;23;20008;-79
2023/09/24 04:48:42;;;;;;;10.88;4.60;;;;;;;;;;6165448;23;20017;-79
2023/09/24 04:51:10;;;;;;;20.30;4.07;;;;;;;;;;6164978;23;20024;-79
2023/09/24 04:53:40;;;;;;;24.75;6.03;;;;;;;;;;6165907;23;20035;-79
2023/09/24 04:56:07;;;;;;;21.70;4.43;;;;;;;;;;6216960;23;20437;-79
2023/09/24 04:58:36;;;;;;;17.38;5.05;;;;;;;;;;6164460;23;20028;-79
2023/09/24 05:01:04;;;;;;;9.95;5.32;;;;;;;;;;6189926;23;20349;-79
2023/09/24 05:03:32;;;;;;;19.10;5.97;;;;;;;;;;6216835;23;20012;-79
2023/09/24 05:05:59;;;;;;;7.70;4.00;;;;;;;;;;6216989;23;20017;-79
2023/09/24 05:08:29;;;;;;;12.18;4.78;;;;;;;;;;6165522;23;20016;-79
2023/09/24 05:10:59;;;;;;;8.23;3.80;;;;;;;;;;6226200;23;20013;-79
2023/09/24 05:13:28;;;;;;;25.67;5.43;;;;;;;;;;6164843;23;20024;-79
2023/09/24 05:16:01;;;;;;;17.52;6.22;;;;;;;;;;6216105;23;20348;-79
2023/09/24 05:18:28;;;;;;;14.05;4.18;;;;;;;;;;6191394;23;20017;-79
2023/09/24 05:20:58;;;;;;;22.60;5.22;;;;;;;;;;6226859;23;20012;-79
2023/09/24 05:23:25;;;;;;;17.10;5.03;;;;;;;;;;6191175;23;20031;-79
2023/09/24 05:25:53;;;;;;;20.98;6.45;;;;;;;;;;6195535;23;20346;-79
2023/09/24 05:28:20;;;;;;;15.35;4.05;;;;;;;;;;6218523;23;20016;-79
2023/09/24 05:30:53;;;;;;;42.55;9.52;;;;;;;;;;6228926;23;20016;-80
2023/09/24 05:33:22;;;;;;;19.95;5.60;;;;;;;;;;6168203;23;20676;-80
2023/09/24 05:35:52;;;;;;;18.90;8.30;;;;;;;;;;6165667;23;20017;-80
2023/09/24 05:38:20;;;;;;;36.10;8.30;;;;;;;;;;6217954;23;20012;-80
2023/09/24 05:40:49;;;;;;;37.85;6.72;;;;;;;;;;6167494;23;20027;-80
2023/09/24 05:43:17;;;;;;;11.85;4.05;;;;;;;;;;6166838;23;20016;-80
2023/09/24 05:45:48;;;;;;;86.15;12.98;;;;;;;;;;6187759;23;20021;-80
2023/09/24 05:48:18;;;;;;;28.52;7.38;;;;;;;;;;6166236;23;20028;-80
2023/09/24 05:50:47;;;;;;;9.90;4.93;;;;;;;;;;6168236;23;20025;-80
2023/09/24 05:53:16;;;;;;;15.32;4.15;;;;;;;;;;6168846;23;20020;-80
2023/09/24 06:14:50;;;;;;;53.40;9.63;;;;;;;;;;6227794;23;20017;-81
2023/09/24 06:17:17;;;;;;;15.85;4.80;;;;;;;;;;6166117;23;20025;-81
2023/09/24 06:19:45;;;;;;;12.15;4.05;;;;;;;;;;6165787;23;20021;-81
2023/09/24 06:22:12;;;;;;;10.25;4.57;;;;;;;;;;6192128;23;20020;-81
2023/09/24 06:24:40;;;;;;;12.15;4.60;;;;;;;;;;6167108;23;20029;-81
2023/09/24 06:27:07;;;;;;;11.30;4.03;;;;;;;;;;6190287;23;20023;-81
2023/09/24 06:29:35;;;;;;;29.48;8.00;;;;;;;;;;6164264;23;20016;-81
2023/09/24 06:32:04;;;;;;;14.50;3.53;;;;;;;;;;6165966;23;20488;-81
2023/09/24 06:34:35;;;;;;;10.30;3.70;;;;;;;;;;6166723;23;20472;-81
2023/09/24 06:37:02;;;;;;;18.45;3.38;;;;;;;;;;6166154;23;20028;-82
2023/09/24 06:39:30;;;;;;;8.57;2.58;;;;;;;;;;6190483;23;20079;-81
2023/09/24 06:41:57;;;;;;;7.60;3.28;;;;;;;;;;6166621;23;20026;-81
2023/09/24 06:44:25;;;;;;;28.80;4.80;;;;;;;;;;6141066;23;20020;-81
2023/09/24 06:46:53;;;;;;;11.57;3.58;;;;;;;;;;6191047;23;20024;-81
2023/09/24 06:49:21;;;;;;;6.18;3.17;;;;;;;;;;6162976;23;20021;-81
2023/09/24 06:51:53;;;;;;;39.25;6.45;;;;;;;;;;6166181;23;20027;-81
2023/09/24 06:54:20;;;;;;;12.95;4.35;;;;;;;;;;6165534;23;20027;-81
2023/09/24 06:56:47;;;;;;;12.07;4.03;;;;;;;;;;6191005;23;20098;-81
2023/09/24 06:59:17;;;;;;;14.02;4.25;;;;;;;;;;6161011;23;20503;-81
2023/09/24 07:01:44;;;;;;;11.57;4.43;;;;;;;;;;6165733;23;20016;-81
2023/09/24 07:41:40;;;;;;;8.50;4.03;;;;;;;;;;6199353;23;20021;-82
2023/09/24 07:44:07;;;;;;;6.22;3.47;;;;;;;;;;6149453;23;20027;-82
2023/09/24 07:46:34;;;;;;;4.45;3.72;;;;;;;;;;6171410;23;20023;-82
2023/09/24 07:49:05;;;;;;;5.72;3.20;;;;;;;;;;6145519;23;20027;-82
2023/09/24 07:51:32;;;;;;;3.83;3.05;;;;;;;;;;6196518;23;20016;-83
2023/09/24 07:54:00;;;;;;;6.00;4.03;;;;;;;;;;6145539;23;20021;-82
2023/09/24 07:56:27;;;;;;;4.15;3.72;;;;;;;;;;6158295;23;20020;-82
2023/09/24 07:58:56;;;;;;;4.38;3.22;;;;;;;;;;6132062;23;20032;-82
2023/09/24 08:01:23;;;;;;;4.38;3.42;;;;;;;;;;6157020;23;20013;-82
2023/09/24 08:03:53;;;;;;;6.10;4.78;;;;;;;;;;6156827;23;20013;-82
2023/09/24 08:06:22;;;;;;;4.75;4.15;;;;;;;;;;6156878;23;20028;-82
2023/09/24 08:08:50;;;;;;;4.00;3.63;;;;;;;;;;6156627;23;20369;-82
2023/09/24 08:11:17;;;;;;;4.50;4.10;;;;;;;;;;6156826;23;20021;-82
2023/09/24 08:13:47;;;;;;;3.40;3.10;;;;;;;;;;6158096;23;20024;-82
2023/09/24 08:16:18;;;;;;;6.13;3.65;;;;;;;;;;6132795;23;20036;-82
2023/09/24 08:18:49;;;;;;;3.92;3.60;;;;;;;;;;6157021;23;20017;-82
2023/09/24 08:21:19;;;;;;;3.65;3.33;;;;;;;;;;6133495;23;20031;-82
2023/09/24 08:23:47;;;;;;;5.25;3.45;;;;;;;;;;6156799;23;20028;-82
2023/09/24 08:26:21;;;;;;;3.67;3.10;;;;;;;;;;6158928;23;20040;-82
2023/09/24 08:28:51;;;;;;;6.97;3.13;;;;;;;;;;6156134;23;20017;-82
2023/09/24 08:31:20;;;;;;;4.53;3.72;;;;;;;;;;6192727;23;20013;-82
2023/09/24 08:33:47;;;;;;;4.47;4.07;;;;;;;;;;6131626;23;20021;-82
2023/09/24 08:36:17;;;;;;;5.50;3.35;;;;;;;;;;6132863;23;20043;-82
2023/09/24 08:38:45;;;;;;;3.67;3.20;;;;;;;;;;6133603;23;20032;-82
2023/09/24 08:41:13;;;;;;;3.92;3.55;;;;;;;;;;6108906;23;20013;-82
2023/09/24 08:43:42;;;;;;;4.95;3.88;;;;;;;;;;6103119;23;20021;-83
2023/09/24 09:43:46;;;;;;;3.17;2.87;;;;;;;;;;6182204;23;20275;-83
2023/09/24 09:46:18;;;;;;;3.45;2.40;;;;;;;;;;6209727;23;20016;-82
2023/09/24 09:48:52;;;;;;;2.58;2.38;;;;;;;;;;6179849;23;20030;-82
2023/09/24 09:51:23;;;;;;;4.82;2.88;;;;;;;;;;6215919;23;20009;-82
2023/09/24 09:53:51;;;;;;;3.78;2.45;;;;;;;;;;6197901;23;20472;-82
2023/09/24 09:56:22;;;;;;;2.55;2.35;;;;;;;;;;6214418;23;20017;-82
2023/09/24 09:58:53;;;;;;;3.03;2.65;;;;;;;;;;6188672;23;20017;-82
2023/09/24 10:01:23;;;;;;;3.65;2.97;;;;;;;;;;6189590;23;20476;-83
2023/09/24 10:03:56;;;;;;;3.53;2.20;;;;;;;;;;6199707;23;20024;-82
2023/09/24 10:06:23;;;;;;;4.40;3.03;;;;;;;;;;6188471;23;20015;-82
2023/09/24 10:08:51;;;;;;;3.63;2.28;;;;;;;;;;6163256;23;20017;-82
2023/09/24 10:11:53;;;;;;;4.80;2.17;;;;;;;;;;6187968;23;20422;-82
2023/09/24 10:14:35;;;;;;;2.90;2.20;;;;;;;;;;6187463;23;20020;-82
2023/09/24 10:17:25;;;;;;;2.78;2.58;;;;;;;;;;6162842;23;20017;-81
2023/09/24 10:19:54;;;;;;;3.00;2.28;;;;;;;;;;6186395;23;20072;-82
2023/09/24 10:22:26;;;;;;;4.22;2.58;;;;;;;;;;6188172;23;20453;-83
2023/09/24 10:24:53;;;;;;;2.50;2.28;;;;;;;;;;6164123;23;20031;-82
2023/09/24 10:27:23;;;;;;;7.30;2.00;;;;;;;;;;6188180;23;20345;-82
2023/09/24 10:30:10;;;;;;;2.10;1.30;;;;;;;;;;6225530;23;20017;-82
2023/09/24 10:32:50;;;;;;;4.22;1.83;;;;;;;;;;6199233;23;20013;-82
2023/09/24 10:35:19;;;;;;;3.47;1.90;;;;;;;;;;6224708;23;20023;-83
2023/09/24 10:38:03;;;;;;;1.23;0.90;;;;;;;;;;6192003;23;20056;-82
2023/09/24 10:40:32;;;;;;;4.10;1.50;;;;;;;;;;6166415;23;20040;-82
2023/09/24 10:43:15;;;;;;;2.88;1.13;;;;;;;;;;6172337;23;20028;-82
2023/09/24 10:45:48;;;;;;;1.92;1.63;;;;;;;;;;6146040;23;20031;-83
2023/09/24 10:48:19;;;;;;;1.45;1.27;;;;;;;;;;6171069;23;20031;-82
2023/09/24 10:50:49;;;;;;;1.52;1.25;;;;;;;;;;6145810;23;20031;-83
2023/09/24 10:53:19;;;;;;;2.67;1.02;;;;;;;;;;6135132;23;20020;-82
2023/09/24 11:19:45;;;;;;;1.63;0.90;;;;;;;;;;6203739;23;20020;-85
2023/09/24 11:22:17;;;;;;;2.15;1.40;;;;;;;;;;6224165;23;20254;-85
2023/09/24 11:25:05;;;;;;;2.30;1.30;;;;;;;;;;6188729;23;20032;-84
2023/09/24 11:27:33;;;;;;;2.80;1.40;;;;;;;;;;6166677;23;20043;-84
2023/09/24 11:30:04;;;;;;;1.45;0.80;;;;;;;;;;6189783;23;20031;-84
2023/09/24 11:32:31;;;;;;;1.95;1.35;;;;;;;;;;6189575;23;20464;-85
2023/09/24 11:35:11;;;;;;;5.97;1.55;;;;;;;;;;6167064;23;20028;-85
2023/09/24 11:37:52;;;;;;;4.65;1.15;;;;;;;;;;6191242;23;20020;-85
2023/09/24 11:40:28;;;;;;;2.20;1.38;;;;;;;;;;6164635;23;20422;-84
2023/09/24 11:42:59;;;;;;;1.13;0.93;;;;;;;;;;6165895;23;20039;-85
2023/09/24 11:45:42;;;;;;;1.90;1.15;;;;;;;;;;6191735;23;20017;-84
2023/09/24 11:48:11;;;;;;;1.75;1.27;;;;;;;;;;6190947;23;20017;-84
2023/09/24 11:50:43;;;;;;;2.10;1.15;;;;;;;;;;6188762;23;20035;-85
2023/09/24 11:53:11;;;;;;;4.07;1.05;;;;;;;;;;6188374;23;20016;-84
2023/09/24 12:16:17;;;;;;;2.75;1.42;;;;;;;;;;6136109;23;20032;-85
2023/09/24 12:18:46;;;;;;;2.35;1.27;;;;;;;;;;6127569;23;20028;-84
2023/09/24 12:21:15;;;;;;;2.50;0.82;;;;;;;;;;6164046;23;20017;-85
2023/09/24 12:23:46;;;;;;;1.73;0.77;;;;;;;;;;6129419;23;20029;-85
2023/09/24 12:26:16;;;;;;;1.48;0.75;;;;;;;;;;6103476;23;20021;-85
2023/09/24 12:28:48;;;;;;;1.38;0.85;;;;;;;;;;6160878;23;20024;-85
2023/09/24 12:31:17;;;;;;;1.88;0.93;;;;;;;;;;6128558;23;20353;-85
2023/09/24 12:33:44;;;;;;;2.30;1.15;;;;;;;;;;6103780;23;20017;-85
2023/09/24 12:36:12;;;;;;;1.55;1.20;;;;;;;;;;6154446;23;20433;-85
2023/09/24 12:38:39;;;;;;;2.55;1.15;;;;;;;;;;6128108;23;20021;-85
2023/09/24 12:41:06;;;;;;;1.30;0.80;;;;;;;;;;6130874;23;20017;-85
2023/09/24 12:43:34;;;;;;;0.95;0.77;;;;;;;;;;6156255;23;20020;-85
2023/09/24 12:46:07;;;;;;;1.58;0.55;;;;;;;;;;6106340;23;20033;-85
2023/09/24 12:48:37;;;;;;;1.38;0.90;;;;;;;;;;6129645;23;20028;-84
2023/09/24 12:51:07;;;;;;;1.38;0.80;;;;;;;;;;6130033;23;20019;-85
2023/09/24 12:53:35;;;;;;;1.55;1.05;;;;;;;;;;6133465;23;20017;-85
2023/09/24 12:56:03;;;;;;;1.92;0.60;;;;;;;;;;6132160;23;20018;-86
2023/09/24 12:58:30;;;;;;;1.73;0.93;;;;;;;;;;6133378;23;20021;-86
2023/09/24 13:01:03;;;;;;;2.28;1.35;;;;;;;;;;6133129;23;20386;-86
2023/09/24 13:06:30;;;;;;;1.38;1.05;;;;;;;;;;6153192;23;20013;-80
2023/09/24 13:09:01;;;;;;;3.78;1.02;;;;;;;;;;6116004;23;20028;-80
2023/09/24 13:11:29;;;;;;;3.28;1.10;;;;;;;;;;6116700;23;20028;-80
2023/09/24 13:13:56;;;;;;;1.83;1.38;;;;;;;;;;6165715;23;20010;-80
2023/09/24 13:16:23;;;;;;;1.65;1.05;;;;;;;;;;6164509;23;20018;-80
2023/09/24 13:18:53;;;;;;;1.48;1.10;;;;;;;;;;6139161;23;20021;-80
2023/09/24 13:21:20;;;;;;;2.08;1.35;;;;;;;;;;6115471;23;20025;-80
2023/09/24 13:23:53;;;;;;;1.95;1.17;;;;;;;;;;6150215;23;20020;-80
2023/09/24 13:26:25;;;;;;;1.20;0.82;;;;;;;;;;6171587;23;20024;-81
2023/09/24 13:28:55;;;;;;;1.88;1.02;;;;;;;;;;6139300;23;20025;-80
2023/09/24 13:31:22;;;;;;;1.70;0.90;;;;;;;;;;6138000;23;20014;-80
2023/09/24 13:33:49;;;;;;;2.00;0.95;;;;;;;;;;6114673;23;20020;-80
2023/09/24 13:36:19;;;;;;;1.50;1.15;;;;;;;;;;6114467;23;20056;-81
2023/09/24 13:38:49;;;;;;;3.80;1.35;;;;;;;;;;6137076;23;20021;-81
2023/09/24 13:41:18;;;;;;;1.48;1.05;;;;;;;;;;6136370;23;20438;-81
2023/09/24 13:43:45;;;;;;;1.10;0.60;;;;;;;;;;6111435;23;20029;-81
2023/09/24 13:46:17;;;;;;;1.02;0.70;;;;;;;;;;6110839;23;20024;-82
2023/09/24 13:48:44;;;;;;;2.25;1.48;;;;;;;;;;6130550;23;20017;-83
2023/09/24 13:51:12;;;;;;;2.30;0.90;;;;;;;;;;6131913;23;20024;-82
2023/09/24 13:53:40;;;;;;;2.05;1.42;;;;;;;;;;6156880;23;20010;-83
2023/09/24 13:56:10;;;;;;;1.50;1.00;;;;;;;;;;6133781;23;20014;-83
2023/09/24 13:58:42;;;;;;;2.13;1.10;;;;;;;;;;6171233;23;20385;-82
2023/09/24 14:01:10;;;;;;;1.65;1.10;;;;;;;;;;6110713;23;20017;-82
2023/09/24 14:03:42;;;;;;;1.00;0.73;;;;;;;;;;6110679;23;20024;-83
2023/09/24 14:06:11;;;;;;;2.95;1.30;;;;;;;;;;6139941;23;20033;-84
2023/09/24 14:14:14;;;;;;;2.15;1.73;;;;;;;;;;6135899;23;20017;-83
2023/09/24 14:16:42;;;;;;;1.75;1.10;;;;;;;;;;6112268;23;20021;-83
2023/09/24 14:19:09;;;;;;;4.32;1.90;;;;;;;;;;6110906;23;20022;-83
2023/09/24 14:21:40;;;;;;;1.63;1.15;;;;;;;;;;6137635;23;20021;-83
2023/09/24 14:24:08;;;;;;;1.58;1.10;;;;;;;;;;6163288;23;20020;-83
2023/09/24 14:26:35;;;;;;;1.27;0.90;;;;;;;;;;6137233;23;20013;-83
2023/09/24 14:29:05;;;;;;;4.75;1.65;;;;;;;;;;6163562;23;20041;-83
2023/09/24 14:31:36;;;;;;;1.60;1.10;;;;;;;;;;6138537;23;20017;-83
2023/09/24 14:34:03;;;;;;;1.90;1.42;;;;;;;;;;6165826;23;20323;-83
2023/09/24 14:36:30;;;;;;;1.60;1.33;;;;;;;;;;6116319;23;20092;-83
2023/09/24 14:39:02;;;;;;;2.75;1.50;;;;;;;;;;6116086;23;20031;-83
2023/09/24 14:41:29;;;;;;;2.22;1.40;;;;;;;;;;6167437;23;20466;-83
2023/09/24 14:44:00;;;;;;;1.63;0.75;;;;;;;;;;6142148;23;20024;-83
2023/09/24 14:46:27;;;;;;;1.25;1.00;;;;;;;;;;6140143;23;20032;-83
2023/09/24 14:48:58;;;;;;;1.85;1.40;;;;;;;;;;6118293;23;20036;-83
2023/09/24 14:51:25;;;;;;;1.27;0.70;;;;;;;;;;6165980;23;20017;-83
2023/09/24 14:53:58;;;;;;;2.58;1.15;;;;;;;;;;6117263;23;20017;-83
2023/09/24 14:56:28;;;;;;;3.28;1.65;;;;;;;;;;6170991;23;20349;-83
2023/09/24 14:58:58;;;;;;;1.63;1.13;;;;;;;;;;6168924;23;20013;-83
2023/09/24 15:01:26;;;;;;;1.35;0.93;;;;;;;;;;6169304;23;20021;-83
2023/09/24 15:03:57;;;;;;;3.22;1.02;;;;;;;;;;6141919;23;20013;-83
2023/09/24 15:06:27;;;;;;;2.22;1.45;;;;;;;;;;6148905;23;20384;-83
2023/09/24 15:08:56;;;;;;;1.52;1.00;;;;;;;;;;6173177;23;20028;-83
2023/09/24 15:11:24;;;;;;;2.85;1.23;;;;;;;;;;6170106;23;20025;-83
2023/09/24 15:13:51;;;;;;;1.55;1.25;;;;;;;;;;6169773;23;20021;-83
2023/09/24 15:16:18;;;;;;;1.40;1.10;;;;;;;;;;6165908;23;20017;-83
2023/09/24 15:18:48;;;;;;;2.15;1.50;;;;;;;;;;6141571;23;20024;-83
2023/09/24 15:21:21;;;;;;;1.45;1.00;;;;;;;;;;6193613;23;20023;-83
2023/09/24 15:23:48;;;;;;;1.73;1.10;;;;;;;;;;6142464;23;20013;-83
2023/09/24 15:26:18;;;;;;;1.80;0.85;;;;;;;;;;6144812;23;20031;-83
2023/09/24 15:28:45;;;;;;;1.38;0.95;;;;;;;;;;6168444;23;20021;-83
2023/09/24 15:31:16;;;;;;;1.80;1.13;;;;;;;;;;6139016;23;20021;-83
2023/09/24 15:33:45;;;;;;;1.73;1.00;;;;;;;;;;6161172;23;20027;-83
2023/09/24 15:36:12;;;;;;;1.15;0.88;;;;;;;;;;6137894;23;20017;-83
2023/09/24 15:38:43;;;;;;;3.72;1.00;;;;;;;;;;6162328;23;20013;-82
2023/09/24 15:41:10;;;;;;;1.48;1.13;;;;;;;;;;6164520;23;20024;-83
2023/09/24 15:43:40;;;;;;;1.85;0.85;;;;;;;;;;6199259;23;20019;-83
2023/09/24 15:54:33;;;;;;;1.52;1.10;;;;;;;;;;6167129;23;20013;-83
2023/09/24 15:57:02;;;;;;;1.83;0.93;;;;;;;;;;6121153;23;20029;-83
2023/09/24 15:59:30;;;;;;;1.63;0.95;;;;;;;;;;6151615;23;20026;-83
2023/09/24 16:01:59;;;;;;;2.95;1.42;;;;;;;;;;6094296;23;20026;-83
2023/09/24 16:04:27;;;;;;;2.22;1.50;;;;;;;;;;6100565;23;20026;-83
2023/09/24 16:06:54;;;;;;;3.33;1.15;;;;;;;;;;6131862;23;20043;-83
2023/09/24 16:09:21;;;;;;;1.92;1.20;;;;;;;;;;6104451;23;20017;-83
2023/09/24 16:11:50;;;;;;;1.70;0.98;;;;;;;;;;6139510;23;20021;-81
2023/09/24 16:14:19;;;;;;;2.10;1.30;;;;;;;;;;6102051;23;20017;-82
2023/09/24 16:34:28;;;;;;;2.00;0.97;;;;;;;;;;6112567;23;1132370;-82
2023/09/24 16:36:55;;;;;;;2.53;1.05;;;;;;;;;;6192946;23;20025;-82
2023/09/24 16:39:22;;;;;;;1.90;1.67;;;;;;;;;;6167743;23;20021;-81
2023/09/24 16:41:50;;;;;;;2.10;1.30;;;;;;;;;;6167136;23;20027;-82
2023/09/24 16:44:18;;;;;;;1.38;0.93;;;;;;;;;;6201589;23;20503;-81
2023/09/24 16:46:45;;;;;;;1.02;0.90;;;;;;;;;;6165849;23;20024;-81
2023/09/24 16:49:12;;;;;;;1.17;0.98;;;;;;;;;;6165346;23;20028;-82
2023/09/24 16:51:41;;;;;;;1.50;1.10;;;;;;;;;;6221106;23;20349;-82
2023/09/24 17:31:30;;;;;;;4.72;1.85;;;;;;;;;;6188622;23;20017;-81
2023/09/24 17:33:57;;;;;;;4.15;1.40;;;;;;;;;;6137408;23;20017;-81
2023/09/24 17:36:24;;;;;;;2.58;1.80;;;;;;;;;;6161679;23;20035;-81
2023/09/24 17:38:52;;;;;;;2.97;1.42;;;;;;;;;;6165404;23;20021;-81
2023/09/24 17:41:19;;;;;;;2.88;1.65;;;;;;;;;;6141878;23;20020;-82
2023/09/24 17:43:50;;;;;;;2.60;1.80;;;;;;;;;;6142961;23;20021;-82
2023/09/24 17:46:19;;;;;;;6.00;1.80;;;;;;;;;;6140690;23;20031;-82
2023/09/24 17:48:47;;;;;;;2.42;1.75;;;;;;;;;;6141913;23;20017;-82
2023/09/24 17:51:16;;;;;;;1.98;1.30;;;;;;;;;;6139993;23;20528;-82
2023/09/24 17:53:43;;;;;;;2.13;1.23;;;;;;;;;;6142827;23;20021;-82
2023/09/24 17:56:12;;;;;;;3.50;1.42;;;;;;;;;;6139847;23;20025;-82
2023/09/24 17:58:40;;;;;;;1.85;1.65;;;;;;;;;;6118808;23;20061;-82
2023/09/24 18:01:10;;;;;;;1.88;1.45;;;;;;;;;;6194240;23;20016;-82
2023/09/24 18:03:42;;;;;;;3.47;1.90;;;;;;;;;;6194760;23;20025;-82
2023/09/24 18:26:44;;;;;;;2.83;2.03;;;;;;;;;;6211672;23;20024;-82
2023/09/24 18:29:11;;;;;;;2.15;1.92;;;;;;;;;;6197281;23;20373;-82
2023/09/24 18:31:39;;;;;;;3.67;2.03;;;;;;;;;;6170842;23;20024;-82
2023/09/24 18:34:06;;;;;;;1.92;1.70;;;;;;;;;;6169566;23;20017;-81
2023/09/24 18:36:35;;;;;;;2.72;1.40;;;;;;;;;;6223332;23;20461;-81
2023/09/24 18:39:05;;;;;;;3.05;1.80;;;;;;;;;;6170336;23;20529;-81
2023/09/24 18:41:37;;;;;;;2.13;1.20;;;;;;;;;;6171809;23;20021;-82
2023/09/24 18:44:09;;;;;;;3.10;1.40;;;;;;;;;;6171278;23;20023;-82
2023/09/24 18:46:37;;;;;;;2.53;1.75;;;;;;;;;;6172187;23;20027;-82
2023/09/24 18:49:06;;;;;;;1.73;1.38;;;;;;;;;;6195499;23;20023;-82
2023/09/24 18:51:36;;;;;;;2.40;1.50;;;;;;;;;;6196505;23;20020;-82
2023/09/24 18:54:03;;;;;;;2.30;1.80;;;;;;;;;;6173634;23;20012;-82
2023/09/24 18:56:30;;;;;;;4.10;2.13;;;;;;;;;;6224193;23;20020;-81
2023/09/24 18:58:57;;;;;;;2.00;1.80;;;;;;;;;;6199386;23;20016;-82
2023/09/24 19:01:29;;;;;;;2.05;1.80;;;;;;;;;;6235506;23;20019;-82
2023/09/24 19:03:56;;;;;;;3.35;1.58;;;;;;;;;;6193575;23;20011;-82
2023/09/24 19:06:23;;;;;;;1.60;1.50;;;;;;;;;;6130941;23;20020;-82
2023/09/24 19:08:50;;;;;;;2.67;2.10;;;;;;;;;;6132023;23;20503;-82
2023/09/24 19:11:18;;;;;;;2.45;2.08;;;;;;;;;;6156439;23;20021;-84
2023/09/24 19:13:45;;;;;;;4.25;2.20;;;;;;;;;;6155916;23;20017;-84
2023/09/24 19:16:13;;;;;;;2.60;1.88;;;;;;;;;;6155875;23;20013;-84
2023/09/24 19:18:41;;;;;;;2.55;1.67;;;;;;;;;;6182214;23;20024;-84
2023/09/24 19:21:09;;;;;;;9.48;2.17;;;;;;;;;;6154521;23;20024;-84
2023/09/24 19:23:38;;;;;;;2.05;1.55;;;;;;;;;;6156165;23;20032;-84
2023/09/24 19:26:10;;;;;;;3.50;2.05;;;;;;;;;;6188182;23;20013;-84
2023/09/24 19:28:42;;;;;;;3.67;1.75;;;;;;;;;;6154985;23;20032;-84
2023/09/24 19:31:13;;;;;;;2.97;2.17;;;;;;;;;;6166038;23;20032;-84
2023/09/24 19:33:46;;;;;;;2.22;1.77;;;;;;;;;;6141376;23;20024;-81
2023/09/24 19:36:16;;;;;;;3.13;1.90;;;;;;;;;;6169070;23;20023;-81
2023/09/24 19:38:47;;;;;;;2.55;2.05;;;;;;;;;;6146757;23;20031;-81
2023/09/24 19:41:18;;;;;;;4.03;2.53;;;;;;;;;;6177407;23;20035;-81
2023/09/24 19:43:45;;;;;;;3.13;1.52;;;;;;;;;;6153234;23;20021;-81
2023/09/24 19:46:15;;;;;;;3.15;2.55;;;;;;;;;;6178068;23;20023;-81
2023/09/24 19:48:43;;;;;;;4.68;1.90;;;;;;;;;;6175228;23;20021;-81
2023/09/24 19:51:14;;;;;;;4.80;2.53;;;;;;;;;;6146172;23;20025;-81
2023/09/24 19:53:41;;;;;;;2.15;1.48;;;;;;;;;;6145129;23;20024;-81
2023/09/24 19:56:09;;;;;;;3.10;2.33;;;;;;;;;;6146085;23;20025;-81
2023/09/24 19:58:37;;;;;;;2.47;1.98;;;;;;;;;;6171549;23;20028;-81
2023/09/24 20:01:04;;;;;;;4.07;1.88;;;;;;;;;;6169830;23;20366;-81
2023/09/24 20:03:34;;;;;;;2.22;1.60;;;;;;;;;;6146604;23;20017;-81
2023/09/24 20:06:05;;;;;;;5.75;2.90;;;;;;;;;;6167381;23;20469;-81
2023/09/24 20:08:44;;;;;;;2.65;2.13;;;;;;;;;;6236875;23;20026;-81
2023/09/24 20:11:14;;;;;;;2.25;2.05;;;;;;;;;;6175680;23;20050;-80
2023/09/24 20:13:45;;;;;;;2.58;2.30;;;;;;;;;;6177665;23;20024;-81
2023/09/24 20:16:12;;;;;;;4.18;2.80;;;;;;;;;;6176269;23;20024;-81
2023/09/24 20:18:39;;;;;;;1.83;1.60;;;;;;;;;;6176380;23;20021;-80
2023/09/24 20:21:07;;;;;;;2.78;1.90;;;;;;;;;;6200128;23;20445;-81
2023/09/24 20:23:36;;;;;;;2.65;1.75;;;;;;;;;;6199438;23;20019;-81
2023/09/24 20:26:08;;;;;;;3.17;1.90;;;;;;;;;;6175307;23;20035;-81
2023/09/24 20:28:41;;;;;;;5.07;2.15;;;;;;;;;;6176348;23;20033;-81
2023/09/24 20:31:09;;;;;;;2.15;1.95;;;;;;;;;;6176396;23;20016;-81
2023/09/24 20:33:39;;;;;;;3.08;1.88;;;;;;;;;;6197892;23;20020;-80
2023/09/24 20:36:07;;;;;;;2.35;2.13;;;;;;;;;;6177396;23;20017;-80
2023/09/24 20:38:34;;;;;;;3.83;2.55;;;;;;;;;;6201660;23;20031;-80